createdAt,value
2023-02-06T00:08:18.141Z,462.08
2023-02-06T00:09:18.345Z,437.29
2023-02-06T00:10:18.547Z,424.87
2023-02-06T00:11:18.758Z,414.72
2023-02-06T00:12:18.959Z,395.13
2023-02-06T00:13:19.149Z,370.53
2023-02-06T00:14:19.384Z,363.09
2023-02-06T00:15:19.568Z,379.26
2023-02-06T00:16:19.826Z,344.78
2023-02-06T00:17:19.982Z,320.49
2023-02-06T00:18:20.197Z,335.84
2023-02-06T00:19:20.406Z,362.37
2023-02-06T00:20:20.614Z,409.58
2023-02-06T00:21:20.829Z,463.76
2023-02-06T00:22:21.012Z,486.91
2023-02-06T00:23:21.230Z,487.46
2023-02-06T00:24:21.423Z,475.53
2023-02-06T00:25:21.633Z,476.13
2023-02-06T00:26:21.822Z,492.11
2023-02-06T00:27:22.019Z,455.01
2023-02-06T00:28:22.217Z,443.89
2023-02-06T00:29:22.444Z,478.32
2023-02-06T00:30:22.683Z,504.35
2023-02-06T00:31:22.931Z,527.70
2023-02-06T00:32:23.911Z,503.82
2023-02-06T00:33:23.121Z,515.90
2023-02-06T00:34:23.164Z,568.02
2023-02-06T00:35:23.212Z,514.63
2023-02-06T00:36:23.250Z,416.04
2023-02-06T00:37:23.282Z,381.83
2023-02-06T00:38:23.328Z,376.20
2023-02-06T00:40:23.418Z,328.41
2023-02-06T00:41:23.458Z,314.05
2023-02-06T00:42:23.486Z,290.22
2023-02-06T00:44:23.548Z,322.37
2023-02-06T01:11:28.261Z,182.19
2023-02-06T01:12:28.470Z,192.57
2023-02-06T01:13:28.674Z,212.97
2023-02-06T01:14:28.897Z,221.89
2023-02-06T01:15:29.108Z,231.54
2023-02-06T01:16:29.387Z,197.00
2023-02-06T01:17:29.546Z,189.32
2023-02-06T01:18:29.785Z,191.23
2023-02-06T01:19:30.020Z,180.64
2023-02-06T01:20:30.257Z,147.95
2023-02-06T01:21:30.466Z,133.40
2023-02-06T01:22:30.652Z,123.18
2023-02-06T01:23:30.889Z,114.04
2023-02-06T01:24:31.102Z,120.02
2023-02-06T01:25:31.316Z,118.01
2023-02-06T01:26:31.512Z,123.49
2023-02-06T01:27:31.718Z,131.91
2023-02-06T01:28:31.926Z,134.38
2023-02-06T01:29:32.149Z,136.20
2023-02-06T01:30:32.337Z,153.59
2023-02-06T01:31:32.618Z,184.48
2023-02-06T01:32:32.795Z,161.26
2023-02-06T01:33:32.918Z,146.03
2023-02-06T01:34:33.094Z,150.95
2023-02-06T01:35:33.436Z,160.79
2023-02-06T01:36:33.528Z,153.97
2023-02-06T01:37:33.727Z,136.68
2023-02-06T01:38:33.926Z,116.41
2023-02-06T01:39:34.153Z,122.23
2023-02-06T01:40:34.367Z,158.24
2023-02-06T01:41:34.591Z,196.17
2023-02-06T01:42:34.812Z,216.31
2023-02-06T01:43:35.031Z,217.66
2023-02-06T01:44:35.256Z,216.38
2023-02-06T01:45:35.785Z,212.30
2023-02-06T01:46:35.653Z,217.43
2023-02-06T01:47:35.896Z,225.49
2023-02-06T01:48:36.099Z,208.28
2023-02-06T01:49:36.331Z,193.78
2023-02-06T01:50:36.549Z,197.32
2023-02-06T01:51:36.763Z,193.87
2023-02-06T01:52:36.985Z,193.26
2023-02-06T01:53:37.205Z,197.44
2023-02-06T01:54:37.456Z,199.22
2023-02-06T01:58:38.292Z,176.69
2023-02-06T01:59:38.480Z,179.09
2023-02-06T02:00:38.799Z,172.43
2023-02-06T02:01:39.030Z,156.63
2023-02-06T02:02:39.223Z,156.79
2023-02-06T02:03:39.423Z,156.52
2023-02-06T02:04:39.715Z,157.44
2023-02-06T02:05:39.973Z,158.48
2023-02-06T02:06:40.180Z,160.34
2023-02-06T02:07:40.401Z,152.03
2023-02-06T02:08:40.641Z,153.70
2023-02-06T02:09:40.867Z,167.78
2023-02-06T02:10:41.090Z,211.21
2023-02-06T02:11:41.343Z,235.94
2023-02-06T02:12:41.573Z,241.34
2023-02-06T02:13:41.828Z,212.23
2023-02-06T02:14:42.054Z,200.69
2023-02-06T02:15:42.287Z,183.66
2023-02-06T02:16:42.514Z,197.17
2023-02-06T02:17:42.757Z,220.13
2023-02-06T02:18:42.988Z,259.49
2023-02-06T02:19:43.228Z,333.40
2023-02-06T02:20:43.445Z,391.76
2023-02-06T02:21:43.696Z,459.82
2023-02-06T02:22:43.933Z,527.60
2023-02-06T02:23:44.120Z,486.27
2023-02-06T02:42:48.114Z,410.38
2023-02-06T02:43:48.295Z,398.97
2023-02-06T02:44:48.509Z,363.41
2023-02-06T02:45:48.717Z,398.03
2023-02-06T02:46:48.880Z,494.37
2023-02-06T02:47:49.074Z,552.49
2023-02-06T02:48:49.255Z,580.22
2023-02-06T02:49:49.496Z,671.76
2023-02-06T02:50:49.713Z,812.14
2023-02-06T02:51:49.948Z,950.01
2023-02-06T02:52:50.156Z,1000.00
2023-02-06T02:53:50.370Z,1000.00
2023-02-06T02:54:50.617Z,1000.00
2023-02-06T02:55:50.878Z,953.20
2023-02-06T02:56:51.059Z,995.76
2023-02-06T02:57:51.260Z,1000.00
2023-02-06T02:59:51.625Z,1000.00
2023-02-06T03:00:51.862Z,1000.00
2023-02-06T03:01:52.073Z,1000.00
2023-02-06T03:02:52.243Z,1000.00
2023-02-06T03:03:52.458Z,1000.00
2023-02-06T03:04:52.655Z,1000.00
2023-02-06T03:05:52.877Z,1000.00
2023-02-06T03:06:53.087Z,1000.00
2023-02-06T03:07:53.352Z,1000.00
2023-02-06T03:31:58.262Z,1000.00
2023-02-06T03:32:58.424Z,1000.00
2023-02-06T03:33:58.634Z,1000.00
2023-02-06T03:34:58.850Z,1000.00
2023-02-06T03:35:59.078Z,1000.00
2023-02-06T03:36:59.305Z,1000.00
2023-02-06T03:37:59.517Z,1000.00
2023-02-06T03:38:59.731Z,1000.00
2023-02-06T03:39:59.942Z,1000.00
2023-02-06T03:41:00.181Z,1000.00
2023-02-06T03:42:00.380Z,1000.00
2023-02-06T03:43:00.593Z,1000.00
2023-02-06T03:44:00.822Z,1000.00
2023-02-06T03:45:01.167Z,1000.00
2023-02-06T03:46:01.284Z,1000.00
2023-02-06T03:47:01.467Z,1000.00
2023-02-06T03:48:01.680Z,1000.00
2023-02-06T03:49:01.893Z,1000.00
2023-02-06T03:50:02.127Z,1000.00
2023-02-06T03:51:02.345Z,1000.00
2023-02-06T03:52:02.604Z,1000.00
2023-02-06T03:53:02.792Z,1000.00
2023-02-06T03:54:03.020Z,1000.00
2023-02-06T03:55:03.261Z,1000.00
2023-02-06T03:56:03.474Z,1000.00
2023-02-06T03:57:03.716Z,1000.00
2023-02-06T03:58:03.946Z,932.22
2023-02-06T03:59:04.192Z,932.67
2023-02-06T04:00:04.413Z,900.18
2023-02-06T04:01:04.697Z,805.33
2023-02-06T04:02:04.995Z,723.24
2023-02-06T04:03:05.128Z,672.81
2023-02-06T04:04:05.360Z,645.92
2023-02-06T04:05:05.595Z,625.71
2023-02-06T04:07:06.027Z,645.94
2023-02-06T04:08:06.244Z,661.35
2023-02-06T04:09:06.483Z,657.13
2023-02-06T04:17:08.232Z,724.22
2023-02-06T04:18:08.461Z,766.28
2023-02-06T04:19:08.681Z,785.67
2023-02-06T04:20:08.922Z,772.79
2023-02-06T04:21:09.160Z,799.00
2023-02-06T04:22:09.361Z,782.63
2023-02-06T04:23:09.563Z,744.28
2023-02-06T04:24:09.762Z,738.88
2023-02-06T04:25:10.002Z,666.68
2023-02-06T04:26:10.192Z,650.50
2023-02-06T04:27:10.411Z,634.69
2023-02-06T04:28:10.652Z,594.04
2023-02-06T04:29:10.839Z,632.69
2023-02-06T04:30:11.077Z,748.30
2023-02-06T04:31:11.371Z,780.42
2023-02-06T04:32:11.501Z,721.72
2023-02-06T04:33:11.746Z,673.80
2023-02-06T04:34:11.987Z,632.28
2023-02-06T04:35:12.193Z,624.64
2023-02-06T04:36:12.404Z,621.10
2023-02-06T04:37:12.624Z,594.03
2023-02-06T04:38:12.848Z,571.77
2023-02-06T04:39:13.092Z,559.98
2023-02-06T04:40:13.312Z,577.92
2023-02-06T04:41:13.526Z,580.05
2023-02-06T04:42:13.761Z,652.40
2023-02-06T04:43:13.981Z,752.46
2023-02-06T04:44:14.213Z,814.57
2023-02-06T04:45:14.446Z,804.19
2023-02-06T04:46:14.704Z,652.37
2023-02-06T04:47:14.908Z,632.36
2023-02-06T04:48:15.144Z,591.76
2023-02-06T04:49:15.413Z,529.75
2023-02-06T04:50:15.611Z,500.84
2023-02-06T04:51:15.827Z,517.06
2023-02-06T05:01:18.272Z,727.36
2023-02-06T05:48:28.293Z,1000.00
2023-02-06T05:49:28.510Z,1000.00
2023-02-06T05:50:28.930Z,1000.00
2023-02-06T05:51:28.964Z,1000.00
2023-02-06T05:52:29.191Z,1000.00
2023-02-06T05:53:29.409Z,1000.00
2023-02-06T05:54:29.631Z,1000.00
2023-02-06T05:55:29.861Z,1000.00
2023-02-06T06:33:38.182Z,1000.00
2023-02-06T06:34:38.403Z,1000.00
2023-02-06T06:35:39.441Z,1000.00
2023-02-06T06:36:38.700Z,1000.00
2023-02-06T06:37:38.764Z,1000.00
2023-02-06T06:38:38.830Z,1000.00
2023-02-06T06:39:38.879Z,1000.00
2023-02-06T06:40:38.954Z,1000.00
2023-02-06T06:41:39.033Z,1000.00
2023-02-06T06:42:39.105Z,1000.00
2023-02-06T06:43:39.164Z,1000.00
2023-02-06T06:44:39.233Z,1000.00
2023-02-06T06:45:39.613Z,1000.00
2023-02-06T06:46:39.367Z,1000.00
2023-02-06T06:47:39.434Z,1000.00
2023-02-06T06:48:39.486Z,1000.00
2023-02-06T06:49:39.582Z,1000.00
2023-02-06T06:50:39.778Z,1000.00
2023-02-06T06:51:40.015Z,1000.00
2023-02-06T06:52:40.232Z,1000.00
2023-02-06T06:53:40.524Z,1000.00
2023-02-06T06:54:40.708Z,833.46
2023-02-06T06:55:40.902Z,779.36
2023-02-06T06:56:41.121Z,790.46
2023-02-06T06:57:41.353Z,924.20
2023-02-06T06:59:41.789Z,1000.00
2023-02-06T07:26:48.143Z,1000.00
2023-02-06T07:27:48.384Z,1000.00
2023-02-06T07:28:48.596Z,1000.00
2023-02-06T07:29:50.398Z,1000.00
2023-02-06T07:30:48.912Z,1000.00
2023-02-06T07:31:48.943Z,970.03
2023-02-06T07:32:49.988Z,824.34
2023-02-06T07:33:49.080Z,725.62
2023-02-06T07:34:49.082Z,672.40
2023-02-06T07:35:49.119Z,665.75
2023-02-06T07:36:49.326Z,673.26
2023-02-06T07:37:49.535Z,714.64
2023-02-06T07:38:49.752Z,752.45
2023-02-06T07:39:50.085Z,707.36
2023-02-06T07:40:50.185Z,611.03
2023-02-06T07:41:50.420Z,498.49
2023-02-06T07:42:51.356Z,465.89
2023-02-06T07:43:50.685Z,466.77
2023-02-06T07:44:50.743Z,452.44
2023-02-06T07:45:50.852Z,449.10
2023-02-06T07:46:50.911Z,406.88
2023-02-06T07:47:50.931Z,397.58
2023-02-06T07:48:51.047Z,362.26
2023-02-06T07:49:51.087Z,281.69
2023-02-06T07:50:51.142Z,233.45
2023-02-06T07:51:51.194Z,209.81
2023-02-06T07:52:51.249Z,192.45
2023-02-06T07:53:51.382Z,159.74
2023-02-06T07:54:51.554Z,154.48
2023-02-06T07:55:51.604Z,156.95
2023-02-06T07:56:51.683Z,140.27
2023-02-06T07:57:51.768Z,99.41
2023-02-06T07:58:52.405Z,79.63
2023-02-06T07:59:51.897Z,67.03
2023-02-06T08:00:52.003Z,44.95
2023-02-06T08:01:52.029Z,38.19
2023-02-06T08:02:52.102Z,35.69
2023-02-06T08:03:52.167Z,35.46
2023-02-06T08:04:52.289Z,37.13
2023-02-06T08:05:52.351Z,42.36
2023-02-06T08:06:52.423Z,41.79
2023-02-06T08:07:53.441Z,44.87
2023-02-06T08:08:52.516Z,40.42
2023-02-06T08:09:53.404Z,31.22
2023-02-06T08:10:52.705Z,29.56
2023-02-06T08:11:52.701Z,28.53
2023-02-06T08:12:52.760Z,28.58
2023-02-06T08:13:52.831Z,27.91
2023-02-06T08:14:52.859Z,34.03
2023-02-06T08:15:53.033Z,41.89
2023-02-06T08:16:53.197Z,48.36
2023-02-06T08:17:53.310Z,64.82
2023-02-06T08:18:53.468Z,77.57
2023-02-06T08:19:53.441Z,78.33
2023-02-06T08:20:53.558Z,71.86
2023-02-06T08:21:53.548Z,83.99
2023-02-06T08:22:53.688Z,101.71
2023-02-06T08:23:53.734Z,63.80
2023-02-06T08:24:53.805Z,43.86
2023-02-06T08:26:54.094Z,23.98
2023-02-06T08:27:54.338Z,17.91
2023-02-06T08:28:54.422Z,15.23
2023-02-06T08:29:54.516Z,13.88
2023-02-06T08:30:54.659Z,14.80
2023-02-06T08:31:55.444Z,14.73
2023-02-06T08:32:54.758Z,15.78
2023-02-06T08:33:54.829Z,14.53
2023-02-06T08:34:54.913Z,11.68
2023-02-06T08:35:55.004Z,10.49
2023-02-06T08:36:55.229Z,10.00
2023-02-06T08:37:55.460Z,11.28
2023-02-06T08:41:56.422Z,10.38
2023-02-06T08:42:56.601Z,9.93
2023-02-06T08:43:56.831Z,9.61
2023-02-06T08:44:57.066Z,11.20
2023-02-06T08:45:57.358Z,14.12
2023-02-06T08:47:09.241Z,17.07
2023-02-06T08:47:58.645Z,17.34
2023-02-06T08:48:57.609Z,18.88
2023-02-06T08:49:57.703Z,18.83
2023-02-06T08:50:57.693Z,17.25
2023-02-06T08:51:57.736Z,12.96
2023-02-06T08:52:57.773Z,7.17
2023-02-06T08:53:58.458Z,6.08
2023-02-06T08:54:58.038Z,6.12
2023-02-06T08:55:58.156Z,6.56
2023-02-06T08:56:58.247Z,7.53
2023-02-06T08:57:58.353Z,6.23
2023-02-06T08:58:58.340Z,6.93
2023-02-06T08:59:58.383Z,9.83
2023-02-06T09:01:58.565Z,128.90
2023-02-06T09:02:59.412Z,211.26
2023-02-06T09:03:58.619Z,238.38
2023-02-06T09:04:58.656Z,240.67
2023-02-06T09:06:05.597Z,262.24
2023-02-06T09:07:58.774Z,274.20
2023-02-06T09:08:58.807Z,300.85
2023-02-06T09:09:58.840Z,313.68
2023-02-06T09:10:58.867Z,303.44
2023-02-06T09:11:58.947Z,240.39
2023-02-06T09:12:59.125Z,220.15
2023-02-06T09:13:59.322Z,219.08
2023-02-06T09:56:08.201Z,64.67
2023-02-06T09:57:08.414Z,47.94
2023-02-06T09:58:08.645Z,31.94
2023-02-06T09:59:08.878Z,25.99
2023-02-06T10:00:09.120Z,23.68
2023-02-06T10:01:09.359Z,25.86
2023-02-06T11:15:18.153Z,1.14
2023-02-06T11:16:18.273Z,0.37
2023-02-06T11:17:18.268Z,0.38
2023-02-06T11:18:18.303Z,0.34
2023-02-06T11:19:18.317Z,0.35
2023-02-06T11:20:18.409Z,0.46
2023-02-06T11:21:18.475Z,0.56
2023-02-06T11:22:18.559Z,0.45
2023-02-06T11:23:18.601Z,0.50
2023-02-06T11:24:18.857Z,0.65
2023-02-06T11:25:19.039Z,0.62
2023-02-06T11:26:19.255Z,0.40
2023-02-06T11:27:19.448Z,0.48
2023-02-06T11:28:19.677Z,0.61
2023-02-06T11:29:19.880Z,0.68
2023-02-06T11:30:20.057Z,0.51
2023-02-06T11:31:20.313Z,0.57
2023-02-06T11:32:20.552Z,0.83
2023-02-06T11:33:20.784Z,1.24
2023-02-06T11:34:21.014Z,1.19
2023-02-06T11:35:21.216Z,0.93
2023-02-06T11:36:21.434Z,0.81
2023-02-06T11:37:21.673Z,0.61
2023-02-06T11:38:21.876Z,0.46
2023-02-06T11:39:22.113Z,0.41
2023-02-06T11:40:22.350Z,0.35
2023-02-06T11:41:22.529Z,0.34
2023-02-06T11:42:22.746Z,0.34
2023-02-06T11:43:22.913Z,0.45
2023-02-06T11:44:23.140Z,0.35
2023-02-06T11:45:23.347Z,0.40
2023-02-06T11:46:23.597Z,0.64
2023-02-06T11:47:23.752Z,1.00
2023-02-06T11:48:24.001Z,1.16
2023-02-06T11:49:24.307Z,1.59
2023-02-06T11:50:24.453Z,0.88
2023-02-06T11:51:24.666Z,0.59
2023-02-06T11:52:24.798Z,0.66
2023-02-06T11:53:25.027Z,0.80
2023-02-06T11:54:25.215Z,0.60
2023-02-06T11:55:25.446Z,0.50
2023-02-06T11:56:25.591Z,0.50
2023-02-06T11:57:25.776Z,0.50
2023-02-06T11:58:26.048Z,0.70
2023-02-06T11:59:26.170Z,0.97
2023-02-06T12:00:26.374Z,1.09
2023-02-06T12:01:26.581Z,1.00
2023-02-06T12:02:26.793Z,1.00
2023-02-06T12:03:27.057Z,1.09
2023-02-06T12:04:27.131Z,1.09
2023-02-06T12:05:27.325Z,1.17
2023-02-06T12:06:27.505Z,1.31
2023-02-06T12:07:27.689Z,5.85
2023-02-06T12:08:27.893Z,4.80
2023-02-06T12:09:28.071Z,2.50
2023-02-06T12:10:28.265Z,1.34
2023-02-06T12:11:28.470Z,1.16
2023-02-06T12:12:28.662Z,0.88
2023-02-06T12:16:29.474Z,0.75
2023-02-06T13:02:38.295Z,2.47
2023-02-06T13:03:38.455Z,1.64
2023-02-06T13:05:39.182Z,2.72
2023-02-06T13:08:38.823Z,5.01
2023-02-06T14:36:48.179Z,10.94
2023-02-06T14:37:48.382Z,9.88
2023-02-06T14:38:48.564Z,8.56
2023-02-06T14:39:48.723Z,5.31
2023-02-06T14:40:48.894Z,3.04
2023-02-06T14:41:49.100Z,2.97
2023-02-06T14:42:49.214Z,3.17
2023-02-06T14:43:49.467Z,4.45
2023-02-06T14:44:49.651Z,4.36
2023-02-06T14:46:05.592Z,4.17
2023-02-06T14:46:50.849Z,4.18
2023-02-06T14:47:50.064Z,4.38
2023-02-06T14:48:49.801Z,4.40
2023-02-06T14:49:49.779Z,4.66
2023-02-06T14:50:49.759Z,5.29
2023-02-06T14:51:49.742Z,6.78
2023-02-06T14:52:49.721Z,6.08
2023-02-06T14:53:49.715Z,4.32
2023-02-06T14:54:49.695Z,5.18
2023-02-06T14:55:49.666Z,4.04
2023-02-06T14:57:49.647Z,6.32
2023-02-06T14:58:49.637Z,6.57
2023-02-06T14:59:49.620Z,6.84
2023-02-06T15:00:49.668Z,9.39
2023-02-06T15:01:49.607Z,22.30
2023-02-06T15:02:49.632Z,73.43
2023-02-06T15:03:49.725Z,90.61
2023-02-06T15:04:49.714Z,115.60
2023-02-06T15:05:49.744Z,220.04
2023-02-06T15:06:49.769Z,612.86
2023-02-06T15:07:49.794Z,645.11
2023-02-06T15:08:49.841Z,219.43
2023-02-06T15:09:49.875Z,68.06
2023-02-06T15:10:49.909Z,39.03
2023-02-06T15:11:49.949Z,26.60
2023-02-06T15:12:49.983Z,24.13
2023-02-06T15:13:50.036Z,17.41
2023-02-06T15:14:50.086Z,22.81
2023-02-06T15:15:50.113Z,32.55
2023-02-06T15:16:50.167Z,23.73
2023-02-06T15:17:50.194Z,18.63
2023-02-06T15:18:50.226Z,19.93
2023-02-06T15:19:50.259Z,18.03
2023-02-06T15:20:50.296Z,17.35
2023-02-06T15:21:50.356Z,27.47
2023-02-06T15:22:50.404Z,39.07
2023-02-06T15:23:50.431Z,67.19
2023-02-06T15:24:50.493Z,88.55
2023-02-06T15:25:50.509Z,50.33
2023-02-06T15:26:50.557Z,18.43
2023-02-06T15:27:50.617Z,16.23
2023-02-06T15:28:50.657Z,8.97
2023-02-06T15:29:50.714Z,9.88
2023-02-06T15:30:50.775Z,9.64
2023-02-06T15:54:09.214Z,0.50
2023-02-06T15:55:09.456Z,0.50
2023-02-06T15:56:09.533Z,0.50
2023-02-06T15:57:09.799Z,0.50
2023-02-06T15:58:09.895Z,0.50
2023-02-06T15:59:10.145Z,0.85
2023-02-06T16:00:10.251Z,0.93
2023-02-06T16:01:10.571Z,0.88
2023-02-06T16:02:10.714Z,1.44
2023-02-06T16:03:10.882Z,1.19
2023-02-06T16:04:11.072Z,0.95
2023-02-06T16:05:11.261Z,1.14
2023-02-06T16:06:11.476Z,0.86
2023-02-06T16:39:18.170Z,1.61
2023-02-06T16:40:18.341Z,1.58
2023-02-06T16:41:18.522Z,1.46
2023-02-06T16:42:18.716Z,1.52
2023-02-06T16:43:18.890Z,1.39
2023-02-06T16:44:18.994Z,1.58
2023-02-06T16:45:19.187Z,2.13
2023-02-06T16:46:19.375Z,2.43
2023-02-06T16:47:19.557Z,3.59
2023-02-06T16:48:19.684Z,4.32
2023-02-06T16:49:19.983Z,5.21
2023-02-06T16:50:20.147Z,5.63
2023-02-06T16:51:20.342Z,4.38
2023-02-06T16:52:20.565Z,3.79
2023-02-06T16:53:20.780Z,4.20
2023-02-06T16:54:20.982Z,4.80
2023-02-06T16:55:23.163Z,5.43
2023-02-06T16:56:21.299Z,10.02
2023-02-06T16:57:21.401Z,10.83
2023-02-06T16:58:21.489Z,6.61
2023-02-06T16:59:21.557Z,6.42
2023-02-06T17:00:21.631Z,6.56
2023-02-06T17:01:21.733Z,5.82
2023-02-06T17:02:21.774Z,5.27
2023-02-06T17:03:21.902Z,4.41
2023-02-06T17:04:22.025Z,4.01
2023-02-06T17:05:22.152Z,3.78
2023-02-06T17:06:22.253Z,4.95
2023-02-06T17:07:22.370Z,4.30
2023-02-06T17:08:22.514Z,4.46
2023-02-06T17:09:22.625Z,5.28
2023-02-06T17:10:22.758Z,6.42
2023-02-06T17:11:22.876Z,6.47
2023-02-06T17:12:23.019Z,6.49
2023-02-06T18:01:28.151Z,12.75
2023-02-06T18:02:28.318Z,15.40
2023-02-06T18:03:28.337Z,11.89
2023-02-06T18:04:28.439Z,12.77
2023-02-06T18:05:28.514Z,11.37
2023-02-06T18:06:28.609Z,9.78
2023-02-06T18:07:28.690Z,9.40
2023-02-06T18:08:28.813Z,10.86
2023-02-06T18:09:28.914Z,8.31
2023-02-06T18:10:28.999Z,7.95
2023-02-06T18:11:29.108Z,8.70
2023-02-06T18:12:29.184Z,9.78
2023-02-06T18:13:29.311Z,11.12
2023-02-06T18:14:29.418Z,13.04
2023-02-06T18:15:31.781Z,15.06
2023-02-06T18:16:29.623Z,16.03
2023-02-06T18:17:29.718Z,19.20
2023-02-06T18:18:29.790Z,23.89
2023-02-06T18:19:29.875Z,20.44
2023-02-06T18:20:29.923Z,18.99
2023-02-06T18:21:30.007Z,19.90
2023-02-06T18:22:30.100Z,18.20
2023-02-06T18:23:30.206Z,14.79
2023-02-06T18:24:30.315Z,10.84
2023-02-06T18:25:30.560Z,10.28
2023-02-06T18:26:30.501Z,12.21
2023-02-06T18:27:30.580Z,16.85
2023-02-06T18:28:30.631Z,32.06
2023-02-06T18:29:40.159Z,41.59
2023-02-06T18:30:31.799Z,25.95
2023-02-06T18:31:30.864Z,16.71
2023-02-06T18:32:30.878Z,10.87
2023-02-06T18:33:30.941Z,11.31
2023-02-06T18:34:30.980Z,12.78
2023-02-06T18:35:31.032Z,14.50
2023-02-06T18:36:31.070Z,19.45
2023-02-06T18:37:31.115Z,18.20
2023-02-06T18:38:31.160Z,16.67
2023-02-06T18:39:31.218Z,18.96
2023-02-06T18:40:31.311Z,15.00
2023-02-06T18:41:31.418Z,14.45
2023-02-06T18:42:31.521Z,10.45
2023-02-06T18:43:31.613Z,9.41
2023-02-06T18:44:31.716Z,9.12
2023-02-06T18:45:31.789Z,6.84
2023-02-06T18:46:31.871Z,6.00
2023-02-06T18:47:31.952Z,6.48
2023-02-06T18:48:32.034Z,5.14
2023-02-06T18:49:32.127Z,4.28
2023-02-06T18:50:32.229Z,4.53
2023-02-06T18:51:32.361Z,6.06
2023-02-06T18:52:32.464Z,5.63
2023-02-06T18:53:32.578Z,6.54
2023-02-06T18:54:32.687Z,6.05
2023-02-06T18:55:32.813Z,5.48
2023-02-06T18:56:32.913Z,6.62
2023-02-06T18:57:33.072Z,7.48
2023-02-06T18:58:33.173Z,7.33
2023-02-06T18:59:33.277Z,9.11
2023-02-06T19:00:33.446Z,8.09
2023-02-06T19:01:33.564Z,8.14
2023-02-06T19:02:33.641Z,5.94
2023-02-06T19:03:33.763Z,6.91
2023-02-06T19:04:33.891Z,7.49
2023-02-06T19:05:34.025Z,7.72
2023-02-06T19:06:34.129Z,7.01
2023-02-06T19:07:34.261Z,5.98
2023-02-06T19:08:34.382Z,4.39
2023-02-06T19:09:34.500Z,3.96
2023-02-06T19:10:34.768Z,4.79
2023-02-06T19:11:34.714Z,5.27
2023-02-06T19:12:34.846Z,4.54
2023-02-06T19:40:38.469Z,0.98
2023-02-06T19:41:38.257Z,0.95
2023-02-06T19:42:38.386Z,0.89
2023-02-06T19:43:38.491Z,0.71
2023-02-06T19:44:38.587Z,0.55
2023-02-06T19:45:38.778Z,0.46
2023-02-06T19:46:38.889Z,0.57
2023-02-06T19:47:39.005Z,0.50
2023-02-06T19:48:39.130Z,0.51
2023-02-06T19:49:39.249Z,0.48
2023-02-06T19:50:39.346Z,0.50
2023-02-06T19:51:39.520Z,0.52
2023-02-06T21:12:48.188Z,8.57
2023-02-06T21:13:48.299Z,5.97
2023-02-06T21:14:48.415Z,3.96
2023-02-06T21:15:48.677Z,3.46
2023-02-06T21:16:48.707Z,3.36
2023-02-06T21:17:48.819Z,2.82
2023-02-06T21:18:48.985Z,2.92
2023-02-06T21:19:49.131Z,2.67
2023-02-06T21:20:49.279Z,2.42
2023-02-06T22:36:58.091Z,42.08
2023-02-06T22:37:58.206Z,42.52
2023-02-06T22:38:58.304Z,41.37
2023-02-06T22:39:58.397Z,39.77
2023-02-06T22:40:58.594Z,37.91
2023-02-06T22:41:58.606Z,40.46
2023-02-06T22:42:58.714Z,39.17
2023-02-06T22:43:58.811Z,40.02
2023-02-06T22:44:58.918Z,46.32
2023-02-06T22:45:59.015Z,51.49
2023-02-06T22:46:59.107Z,50.92
2023-02-06T22:47:59.212Z,44.74
2023-02-06T22:48:59.306Z,42.05
2023-02-06T23:54:08.171Z,9.14
2023-02-06T23:55:08.275Z,10.55
2023-02-06T23:56:08.401Z,10.81
2023-02-06T23:57:08.530Z,11.63
